sensor_id;sensor_type;location;lat;lon;timestamp;P1;durP1;ratioP1;P2;durP2;ratioP2
50547;SDS011;38013;48.810;8.818;2022-11-15T00:01:27;6.22;;;2.47;;
50547;SDS011;38013;48.810;8.818;2022-11-15T00:04:11;6.30;;;2.92;;
50547;SDS011;38013;48.810;8.818;2022-11-15T00:06:56;7.20;;;2.63;;
50547;SDS011;38013;48.810;8.818;2022-11-15T00:09:40;5.72;;;2.60;;
50547;SDS011;38013;48.810;8.818;2022-11-15T00:12:26;5.35;;;2.47;;
50547;SDS011;38013;48.810;8.818;2022-11-15T00:15:11;4.88;;;2.10;;
50547;SDS011;38013;48.810;8.818;2022-11-15T00:17:56;6.75;;;2.47;;
50547;SDS011;38013;48.810;8.818;2022-11-15T00:20:40;4.18;;;2.42;;
50547;SDS011;38013;48.810;8.818;2022-11-15T00:23:25;4.40;;;2.20;;
50547;SDS011;38013;48.810;8.818;2022-11-15T00:26:11;6.20;;;2.38;;
50547;SDS011;38013;48.810;8.818;2022-11-15T00:28:57;6.40;;;2.30;;
50547;SDS011;38013;48.810;8.818;2022-11-15T00:31:41;4.30;;;2.00;;
50547;SDS011;38013;48.810;8.818;2022-11-15T00:34:26;4.68;;;2.00;;
50547;SDS011;38013;48.810;8.818;2022-11-15T00:37:10;4.28;;;2.10;;
50547;SDS011;38013;48.810;8.818;2022-11-15T00:39:55;5.03;;;2.28;;
50547;SDS011;38013;48.810;8.818;2022-11-15T00:42:39;4.70;;;2.25;;
50547;SDS011;38013;48.810;8.818;2022-11-15T00:45:25;6.93;;;2.50;;
50547;SDS011;38013;48.810;8.818;2022-11-15T00:48:09;6.22;;;2.20;;
50547;SDS011;38013;48.810;8.818;2022-11-15T00:50:54;5.82;;;2.42;;
50547;SDS011;38013;48.810;8.818;2022-11-15T00:53:38;10.23;;;2.63;;
50547;SDS011;38013;48.810;8.818;2022-11-15T00:56:23;6.57;;;2.40;;
50547;SDS011;38013;48.810;8.818;2022-11-15T00:59:08;4.68;;;2.53;;
50547;SDS011;38013;48.810;8.818;2022-11-15T01:01:52;4.10;;;2.22;;
50547;SDS011;38013;48.810;8.818;2022-11-15T01:04:37;10.48;;;2.97;;
50547;SDS011;38013;48.810;8.818;2022-11-15T01:07:21;7.25;;;2.03;;
50547;SDS011;38013;48.810;8.818;2022-11-15T01:10:06;5.13;;;2.00;;
50547;SDS011;38013;48.810;8.818;2022-11-15T01:12:52;6.15;;;2.20;;
50547;SDS011;38013;48.810;8.818;2022-11-15T01:15:40;5.07;;;1.98;;
50547;SDS011;38013;48.810;8.818;2022-11-15T01:18:25;3.35;;;1.67;;
50547;SDS011;38013;48.810;8.818;2022-11-15T01:21:11;4.55;;;1.80;;
50547;SDS011;38013;48.810;8.818;2022-11-15T01:23:58;4.10;;;2.05;;
50547;SDS011;38013;48.810;8.818;2022-11-15T01:26:42;3.40;;;2.05;;
50547;SDS011;38013;48.810;8.818;2022-11-15T01:29:27;3.65;;;1.83;;
50547;SDS011;38013;48.810;8.818;2022-11-15T01:32:11;5.35;;;2.30;;
50547;SDS011;38013;48.810;8.818;2022-11-15T01:34:56;4.10;;;1.77;;
50547;SDS011;38013;48.810;8.818;2022-11-15T01:37:40;4.57;;;1.80;;
50547;SDS011;38013;48.810;8.818;2022-11-15T01:40:25;7.93;;;2.00;;
50547;SDS011;38013;48.810;8.818;2022-11-15T01:43:19;7.85;;;2.30;;
50547;SDS011;38013;48.810;8.818;2022-11-15T01:49:19;4.15;;;1.73;;
50547;SDS011;38013;48.810;8.818;2022-11-15T01:52:08;4.88;;;2.00;;
50547;SDS011;38013;48.810;8.818;2022-11-15T01:55:19;7.70;;;2.03;;
50547;SDS011;38013;48.810;8.818;2022-11-15T01:58:04;3.70;;;1.65;;
50547;SDS011;38013;48.810;8.818;2022-11-15T02:00:51;4.43;;;1.80;;
50547;SDS011;38013;48.810;8.818;2022-11-15T02:03:56;4.60;;;1.88;;
50547;SDS011;38013;48.810;8.818;2022-11-15T02:06:49;4.45;;;2.10;;
50547;SDS011;38013;48.810;8.818;2022-11-15T02:09:35;4.20;;;2.15;;
50547;SDS011;38013;48.810;8.818;2022-11-15T02:12:21;6.05;;;2.10;;
50547;SDS011;38013;48.810;8.818;2022-11-15T02:15:06;6.28;;;2.50;;
50547;SDS011;38013;48.810;8.818;2022-11-15T02:20:58;7.15;;;2.30;;
50547;SDS011;38013;48.810;8.818;2022-11-15T02:24:46;9.68;;;3.97;;
50547;SDS011;38013;48.810;8.818;2022-11-15T02:37:43;5.43;;;2.33;;
50547;SDS011;38013;48.810;8.818;2022-11-15T02:44:03;4.13;;;1.92;;
50547;SDS011;38013;48.810;8.818;2022-11-15T02:47:02;3.10;;;1.73;;
50547;SDS011;38013;48.810;8.818;2022-11-15T02:50:04;5.15;;;2.15;;
50547;SDS011;38013;48.810;8.818;2022-11-15T02:52:52;5.65;;;2.70;;
50547;SDS011;38013;48.810;8.818;2022-11-15T02:55:41;6.78;;;3.38;;
50547;SDS011;38013;48.810;8.818;2022-11-15T03:01:47;6.95;;;3.53;;
50547;SDS011;38013;48.810;8.818;2022-11-15T03:05:18;8.88;;;3.88;;
50547;SDS011;38013;48.810;8.818;2022-11-15T03:08:29;7.60;;;2.80;;
50547;SDS011;38013;48.810;8.818;2022-11-15T03:11:18;5.70;;;2.65;;
50547;SDS011;38013;48.810;8.818;2022-11-15T03:20:11;5.15;;;1.65;;
50547;SDS011;38013;48.810;8.818;2022-11-15T03:23:00;4.35;;;2.08;;
50547;SDS011;38013;48.810;8.818;2022-11-15T03:25:51;3.17;;;1.63;;
50547;SDS011;38013;48.810;8.818;2022-11-15T03:28:40;4.70;;;1.67;;
50547;SDS011;38013;48.810;8.818;2022-11-15T03:31:32;3.67;;;1.90;;
50547;SDS011;38013;48.810;8.818;2022-11-15T03:34:34;5.40;;;1.83;;
50547;SDS011;38013;48.810;8.818;2022-11-15T03:37:29;3.50;;;2.10;;
50547;SDS011;38013;48.810;8.818;2022-11-15T03:40:21;5.00;;;1.85;;
50547;SDS011;38013;48.810;8.818;2022-11-15T03:43:24;5.35;;;2.00;;
50547;SDS011;38013;48.810;8.818;2022-11-15T03:46:37;5.90;;;1.85;;
50547;SDS011;38013;48.810;8.818;2022-11-15T03:49:55;5.00;;;2.00;;
50547;SDS011;38013;48.810;8.818;2022-11-15T03:52:54;2.95;;;1.42;;
50547;SDS011;38013;48.810;8.818;2022-11-15T03:55:39;7.00;;;2.75;;
50547;SDS011;38013;48.810;8.818;2022-11-15T03:58:24;7.30;;;2.85;;
50547;SDS011;38013;48.810;8.818;2022-11-15T04:01:09;7.40;;;3.25;;
50547;SDS011;38013;48.810;8.818;2022-11-15T04:03:53;5.63;;;2.70;;
50547;SDS011;38013;48.810;8.818;2022-11-15T04:06:38;6.45;;;2.85;;
50547;SDS011;38013;48.810;8.818;2022-11-15T04:09:22;4.88;;;2.30;;
50547;SDS011;38013;48.810;8.818;2022-11-15T04:12:07;5.93;;;2.25;;
50547;SDS011;38013;48.810;8.818;2022-11-15T04:14:51;4.63;;;2.20;;
50547;SDS011;38013;48.810;8.818;2022-11-15T04:17:53;4.00;;;1.58;;
50547;SDS011;38013;48.810;8.818;2022-11-15T04:20:40;3.75;;;1.75;;
50547;SDS011;38013;48.810;8.818;2022-11-15T04:23:43;5.35;;;1.75;;
50547;SDS011;38013;48.810;8.818;2022-11-15T04:26:46;5.45;;;1.95;;
50547;SDS011;38013;48.810;8.818;2022-11-15T04:29:30;4.15;;;2.00;;
50547;SDS011;38013;48.810;8.818;2022-11-15T04:32:17;4.47;;;2.15;;
50547;SDS011;38013;48.810;8.818;2022-11-15T04:35:02;3.80;;;1.80;;
50547;SDS011;38013;48.810;8.818;2022-11-15T04:37:47;4.50;;;1.52;;
50547;SDS011;38013;48.810;8.818;2022-11-15T04:40:31;4.15;;;1.75;;
50547;SDS011;38013;48.810;8.818;2022-11-15T04:43:16;5.55;;;1.85;;
50547;SDS011;38013;48.810;8.818;2022-11-15T04:46:00;4.80;;;1.95;;
50547;SDS011;38013;48.810;8.818;2022-11-15T04:48:44;5.03;;;2.10;;
50547;SDS011;38013;48.810;8.818;2022-11-15T04:51:29;4.70;;;2.05;;
50547;SDS011;38013;48.810;8.818;2022-11-15T04:54:14;4.68;;;2.08;;
50547;SDS011;38013;48.810;8.818;2022-11-15T04:56:58;5.47;;;2.28;;
50547;SDS011;38013;48.810;8.818;2022-11-15T04:59:43;5.00;;;2.50;;
50547;SDS011;38013;48.810;8.818;2022-11-15T05:02:27;4.45;;;2.08;;
50547;SDS011;38013;48.810;8.818;2022-11-15T05:05:32;3.00;;;1.58;;
50547;SDS011;38013;48.810;8.818;2022-11-15T05:08:16;7.03;;;2.13;;
50547;SDS011;38013;48.810;8.818;2022-11-15T05:11:00;4.88;;;1.67;;
50547;SDS011;38013;48.810;8.818;2022-11-15T05:13:45;5.50;;;2.30;;
50547;SDS011;38013;48.810;8.818;2022-11-15T05:16:30;4.95;;;2.00;;
50547;SDS011;38013;48.810;8.818;2022-11-15T05:19:14;3.65;;;1.85;;
50547;SDS011;38013;48.810;8.818;2022-11-15T05:21:59;5.25;;;1.90;;
50547;SDS011;38013;48.810;8.818;2022-11-15T05:24:44;7.63;;;1.70;;
50547;SDS011;38013;48.810;8.818;2022-11-15T05:27:28;4.70;;;2.15;;
50547;SDS011;38013;48.810;8.818;2022-11-15T05:30:13;4.95;;;1.90;;
50547;SDS011;38013;48.810;8.818;2022-11-15T05:32:58;4.60;;;1.77;;
50547;SDS011;38013;48.810;8.818;2022-11-15T05:35:48;3.55;;;1.70;;
50547;SDS011;38013;48.810;8.818;2022-11-15T05:38:39;4.97;;;1.33;;
50547;SDS011;38013;48.810;8.818;2022-11-15T05:41:34;3.83;;;1.60;;
50547;SDS011;38013;48.810;8.818;2022-11-15T05:44:24;3.70;;;1.65;;
50547;SDS011;38013;48.810;8.818;2022-11-15T05:47:11;4.75;;;2.00;;
50547;SDS011;38013;48.810;8.818;2022-11-15T05:50:04;5.25;;;1.60;;
50547;SDS011;38013;48.810;8.818;2022-11-15T05:52:49;5.18;;;2.00;;
50547;SDS011;38013;48.810;8.818;2022-11-15T05:55:34;5.43;;;1.60;;
50547;SDS011;38013;48.810;8.818;2022-11-15T05:58:19;4.05;;;1.90;;
50547;SDS011;38013;48.810;8.818;2022-11-15T06:01:04;3.67;;;1.70;;
50547;SDS011;38013;48.810;8.818;2022-11-15T06:03:48;5.50;;;1.92;;
50547;SDS011;38013;48.810;8.818;2022-11-15T06:06:33;5.18;;;2.05;;
50547;SDS011;38013;48.810;8.818;2022-11-15T06:09:17;4.53;;;1.98;;
50547;SDS011;38013;48.810;8.818;2022-11-15T06:12:02;3.85;;;1.77;;
50547;SDS011;38013;48.810;8.818;2022-11-15T06:14:47;3.63;;;1.65;;
50547;SDS011;38013;48.810;8.818;2022-11-15T06:17:31;3.83;;;1.63;;
50547;SDS011;38013;48.810;8.818;2022-11-15T06:20:16;3.78;;;1.77;;
50547;SDS011;38013;48.810;8.818;2022-11-15T06:23:01;3.95;;;1.80;;
50547;SDS011;38013;48.810;8.818;2022-11-15T06:25:47;3.40;;;1.58;;
50547;SDS011;38013;48.810;8.818;2022-11-15T06:28:32;4.22;;;1.45;;
50547;SDS011;38013;48.810;8.818;2022-11-15T06:31:17;3.90;;;1.60;;
50547;SDS011;38013;48.810;8.818;2022-11-15T06:34:01;5.57;;;1.77;;
50547;SDS011;38013;48.810;8.818;2022-11-15T06:36:46;4.30;;;1.60;;
50547;SDS011;38013;48.810;8.818;2022-11-15T06:39:30;5.50;;;1.65;;
50547;SDS011;38013;48.810;8.818;2022-11-15T06:42:15;6.20;;;1.80;;
50547;SDS011;38013;48.810;8.818;2022-11-15T06:44:59;3.78;;;1.80;;
50547;SDS011;38013;48.810;8.818;2022-11-15T06:47:45;4.47;;;1.48;;
50547;SDS011;38013;48.810;8.818;2022-11-15T06:50:30;4.97;;;1.73;;
50547;SDS011;38013;48.810;8.818;2022-11-15T06:53:15;3.50;;;1.65;;
50547;SDS011;38013;48.810;8.818;2022-11-15T06:56:03;3.33;;;1.50;;
50547;SDS011;38013;48.810;8.818;2022-11-15T06:58:49;3.53;;;1.75;;
50547;SDS011;38013;48.810;8.818;2022-11-15T07:01:34;3.05;;;1.55;;
50547;SDS011;38013;48.810;8.818;2022-11-15T07:04:18;2.25;;;1.17;;
50547;SDS011;38013;48.810;8.818;2022-11-15T07:07:03;4.45;;;1.80;;
50547;SDS011;38013;48.810;8.818;2022-11-15T07:09:48;4.32;;;1.60;;
50547;SDS011;38013;48.810;8.818;2022-11-15T07:12:32;3.25;;;1.50;;
50547;SDS011;38013;48.810;8.818;2022-11-15T07:15:17;3.80;;;1.50;;
50547;SDS011;38013;48.810;8.818;2022-11-15T07:18:03;5.72;;;1.88;;
50547;SDS011;38013;48.810;8.818;2022-11-15T07:20:48;3.45;;;1.50;;
50547;SDS011;38013;48.810;8.818;2022-11-15T07:23:33;8.73;;;2.30;;
50547;SDS011;38013;48.810;8.818;2022-11-15T07:26:21;4.85;;;2.20;;
50547;SDS011;38013;48.810;8.818;2022-11-15T07:29:06;4.97;;;2.42;;
50547;SDS011;38013;48.810;8.818;2022-11-15T07:31:50;4.60;;;2.47;;
50547;SDS011;38013;48.810;8.818;2022-11-15T07:34:35;4.03;;;2.15;;
50547;SDS011;38013;48.810;8.818;2022-11-15T07:37:19;4.75;;;2.10;;
50547;SDS011;38013;48.810;8.818;2022-11-15T07:40:04;5.93;;;2.13;;
50547;SDS011;38013;48.810;8.818;2022-11-15T07:42:49;5.53;;;2.00;;
50547;SDS011;38013;48.810;8.818;2022-11-15T07:45:40;3.80;;;1.90;;
50547;SDS011;38013;48.810;8.818;2022-11-15T07:48:26;4.70;;;2.03;;
50547;SDS011;38013;48.810;8.818;2022-11-15T07:51:11;3.72;;;1.83;;
50547;SDS011;38013;48.810;8.818;2022-11-15T07:53:57;4.45;;;2.28;;
50547;SDS011;38013;48.810;8.818;2022-11-15T07:56:42;5.70;;;2.38;;
50547;SDS011;38013;48.810;8.818;2022-11-15T07:59:27;4.68;;;2.20;;
50547;SDS011;38013;48.810;8.818;2022-11-15T08:02:11;6.07;;;2.30;;
50547;SDS011;38013;48.810;8.818;2022-11-15T08:04:56;4.82;;;2.22;;
50547;SDS011;38013;48.810;8.818;2022-11-15T08:07:40;4.60;;;2.10;;
50547;SDS011;38013;48.810;8.818;2022-11-15T08:10:25;6.82;;;2.75;;
50547;SDS011;38013;48.810;8.818;2022-11-15T08:13:11;6.55;;;2.20;;
50547;SDS011;38013;48.810;8.818;2022-11-15T08:15:57;4.93;;;2.03;;
50547;SDS011;38013;48.810;8.818;2022-11-15T08:18:43;5.43;;;2.10;;
50547;SDS011;38013;48.810;8.818;2022-11-15T08:21:27;4.57;;;2.25;;
50547;SDS011;38013;48.810;8.818;2022-11-15T08:24:12;5.03;;;2.00;;
50547;SDS011;38013;48.810;8.818;2022-11-15T08:26:57;6.00;;;2.38;;
50547;SDS011;38013;48.810;8.818;2022-11-15T08:29:44;5.75;;;1.98;;
50547;SDS011;38013;48.810;8.818;2022-11-15T08:32:30;9.65;;;2.03;;
50547;SDS011;38013;48.810;8.818;2022-11-15T08:35:15;5.50;;;2.05;;
50547;SDS011;38013;48.810;8.818;2022-11-15T08:37:59;4.90;;;2.05;;
50547;SDS011;38013;48.810;8.818;2022-11-15T08:40:44;4.63;;;2.03;;
50547;SDS011;38013;48.810;8.818;2022-11-15T08:43:28;5.75;;;2.25;;
50547;SDS011;38013;48.810;8.818;2022-11-15T08:46:13;12.95;;;2.40;;
50547;SDS011;38013;48.810;8.818;2022-11-15T08:48:57;6.15;;;2.00;;
50547;SDS011;38013;48.810;8.818;2022-11-15T08:51:42;4.75;;;2.30;;
50547;SDS011;38013;48.810;8.818;2022-11-15T08:54:27;7.47;;;2.47;;
50547;SDS011;38013;48.810;8.818;2022-11-15T08:57:11;3.95;;;2.03;;
50547;SDS011;38013;48.810;8.818;2022-11-15T08:59:56;5.50;;;2.35;;
50547;SDS011;38013;48.810;8.818;2022-11-15T09:02:40;6.43;;;2.30;;
50547;SDS011;38013;48.810;8.818;2022-11-15T09:05:25;5.55;;;2.20;;
50547;SDS011;38013;48.810;8.818;2022-11-15T09:08:10;6.63;;;2.67;;
50547;SDS011;38013;48.810;8.818;2022-11-15T09:10:56;5.15;;;2.40;;
50547;SDS011;38013;48.810;8.818;2022-11-15T09:13:40;6.97;;;2.35;;
50547;SDS011;38013;48.810;8.818;2022-11-15T09:16:25;6.15;;;2.28;;
50547;SDS011;38013;48.810;8.818;2022-11-15T09:19:09;6.68;;;2.63;;
50547;SDS011;38013;48.810;8.818;2022-11-15T09:21:54;5.10;;;1.98;;
50547;SDS011;38013;48.810;8.818;2022-11-15T09:24:39;4.07;;;2.10;;
50547;SDS011;38013;48.810;8.818;2022-11-15T09:27:27;7.18;;;2.25;;
50547;SDS011;38013;48.810;8.818;2022-11-15T09:30:13;5.22;;;2.00;;
50547;SDS011;38013;48.810;8.818;2022-11-15T09:32:58;5.43;;;1.88;;
50547;SDS011;38013;48.810;8.818;2022-11-15T09:35:42;4.28;;;1.98;;
50547;SDS011;38013;48.810;8.818;2022-11-15T09:38:27;7.40;;;2.03;;
50547;SDS011;38013;48.810;8.818;2022-11-15T09:44:03;5.10;;;2.10;;
50547;SDS011;38013;48.810;8.818;2022-11-15T09:47:10;7.13;;;2.10;;
50547;SDS011;38013;48.810;8.818;2022-11-15T09:50:36;4.40;;;1.77;;
50547;SDS011;38013;48.810;8.818;2022-11-15T09:53:13;5.30;;;2.30;;
50547;SDS011;38013;48.810;8.818;2022-11-15T09:55:51;5.20;;;2.45;;
50547;SDS011;38013;48.810;8.818;2022-11-15T09:58:36;6.43;;;2.10;;
50547;SDS011;38013;48.810;8.818;2022-11-15T10:01:21;5.63;;;1.77;;
50547;SDS011;38013;48.810;8.818;2022-11-15T10:04:12;7.90;;;1.75;;
50547;SDS011;38013;48.810;8.818;2022-11-15T10:06:42;5.43;;;1.85;;
50547;SDS011;38013;48.810;8.818;2022-11-15T10:09:27;9.15;;;2.00;;
50547;SDS011;38013;48.810;8.818;2022-11-15T10:12:03;3.60;;;1.77;;
50547;SDS011;38013;48.810;8.818;2022-11-15T10:14:29;4.38;;;1.88;;
50547;SDS011;38013;48.810;8.818;2022-11-15T10:17:13;6.40;;;1.73;;
50547;SDS011;38013;48.810;8.818;2022-11-15T10:20:16;4.53;;;1.60;;
50547;SDS011;38013;48.810;8.818;2022-11-15T10:22:53;2.75;;;1.33;;
50547;SDS011;38013;48.810;8.818;2022-11-15T10:25:30;7.72;;;1.85;;
50547;SDS011;38013;48.810;8.818;2022-11-15T10:30:55;3.85;;;1.10;;
50547;SDS011;38013;48.810;8.818;2022-11-15T10:36:22;4.20;;;1.40;;
50547;SDS011;38013;48.810;8.818;2022-11-15T10:46:37;3.92;;;1.20;;
50547;SDS011;38013;48.810;8.818;2022-11-15T10:49:12;3.72;;;1.58;;
50547;SDS011;38013;48.810;8.818;2022-11-15T10:52:27;3.55;;;1.25;;
50547;SDS011;38013;48.810;8.818;2022-11-15T10:54:37;3.08;;;1.15;;
50547;SDS011;38013;48.810;8.818;2022-11-15T10:57:16;3.88;;;1.13;;
50547;SDS011;38013;48.810;8.818;2022-11-15T10:59:45;4.97;;;1.30;;
50547;SDS011;38013;48.810;8.818;2022-11-15T11:05:25;3.63;;;1.20;;
50547;SDS011;38013;48.810;8.818;2022-11-15T11:07:59;5.28;;;1.50;;
50547;SDS011;38013;48.810;8.818;2022-11-15T11:10:55;4.38;;;1.48;;
50547;SDS011;38013;48.810;8.818;2022-11-15T11:13:28;3.40;;;1.30;;
50547;SDS011;38013;48.810;8.818;2022-11-15T11:16:25;5.53;;;1.70;;
50547;SDS011;38013;48.810;8.818;2022-11-15T11:31:06;3.60;;;1.40;;
50547;SDS011;38013;48.810;8.818;2022-11-15T11:45:19;4.93;;;1.40;;
50547;SDS011;38013;48.810;8.818;2022-11-15T11:48:04;6.75;;;1.80;;
50547;SDS011;38013;48.810;8.818;2022-11-15T11:50:45;6.05;;;1.85;;
50547;SDS011;38013;48.810;8.818;2022-11-15T11:53:12;3.58;;;1.38;;
50547;SDS011;38013;48.810;8.818;2022-11-15T11:56:04;4.93;;;1.98;;
50547;SDS011;38013;48.810;8.818;2022-11-15T11:58:45;3.45;;;1.50;;
50547;SDS011;38013;48.810;8.818;2022-11-15T12:01:26;3.90;;;1.80;;
50547;SDS011;38013;48.810;8.818;2022-11-15T12:06:48;4.35;;;1.65;;
50547;SDS011;38013;48.810;8.818;2022-11-15T12:09:54;5.03;;;1.60;;
50547;SDS011;38013;48.810;8.818;2022-11-15T12:16:05;3.88;;;1.63;;
50547;SDS011;38013;48.810;8.818;2022-11-15T12:18:27;4.18;;;1.50;;
50547;SDS011;38013;48.810;8.818;2022-11-15T12:20:55;3.45;;;1.42;;
50547;SDS011;38013;48.810;8.818;2022-11-15T12:23:32;2.80;;;1.30;;
50547;SDS011;38013;48.810;8.818;2022-11-15T12:26:16;3.70;;;1.50;;
50547;SDS011;38013;48.810;8.818;2022-11-15T12:28:52;7.47;;;1.77;;
50547;SDS011;38013;48.810;8.818;2022-11-15T12:31:24;3.10;;;1.48;;
50547;SDS011;38013;48.810;8.818;2022-11-15T12:34:04;4.85;;;1.70;;
50547;SDS011;38013;48.810;8.818;2022-11-15T12:36:48;4.93;;;1.52;;
50547;SDS011;38013;48.810;8.818;2022-11-15T12:39:16;3.10;;;1.27;;
50547;SDS011;38013;48.810;8.818;2022-11-15T12:42:34;5.40;;;1.80;;
50547;SDS011;38013;48.810;8.818;2022-11-15T13:02:39;3.10;;;1.10;;
50547;SDS011;38013;48.810;8.818;2022-11-15T13:28:42;3.70;;;1.40;;
50547;SDS011;38013;48.810;8.818;2022-11-15T13:34:03;6.38;;;1.77;;
50547;SDS011;38013;48.810;8.818;2022-11-15T13:36:51;2.95;;;1.30;;
50547;SDS011;38013;48.810;8.818;2022-11-15T13:39:31;5.30;;;1.70;;
50547;SDS011;38013;48.810;8.818;2022-11-15T13:41:59;3.08;;;1.50;;
50547;SDS011;38013;48.810;8.818;2022-11-15T13:44:26;3.30;;;1.48;;
50547;SDS011;38013;48.810;8.818;2022-11-15T13:47:01;3.40;;;1.70;;
50547;SDS011;38013;48.810;8.818;2022-11-15T13:49:34;4.43;;;1.60;;
50547;SDS011;38013;48.810;8.818;2022-11-15T13:52:01;6.15;;;2.38;;
50547;SDS011;38013;48.810;8.818;2022-11-15T13:54:32;4.65;;;2.10;;
50547;SDS011;38013;48.810;8.818;2022-11-15T13:57:22;4.68;;;2.22;;
50547;SDS011;38013;48.810;8.818;2022-11-15T13:59:54;4.97;;;2.22;;
50547;SDS011;38013;48.810;8.818;2022-11-15T14:02:49;5.97;;;2.08;;
50547;SDS011;38013;48.810;8.818;2022-11-15T14:05:19;5.70;;;2.10;;
50547;SDS011;38013;48.810;8.818;2022-11-15T14:07:58;6.05;;;2.30;;
50547;SDS011;38013;48.810;8.818;2022-11-15T14:10:29;10.27;;;2.92;;
50547;SDS011;38013;48.810;8.818;2022-11-15T14:12:56;6.03;;;3.40;;
50547;SDS011;38013;48.810;8.818;2022-11-15T14:15:36;7.50;;;3.88;;
50547;SDS011;38013;48.810;8.818;2022-11-15T14:18:04;10.05;;;3.60;;
50547;SDS011;38013;48.810;8.818;2022-11-15T14:23:03;4.50;;;2.23;;
50547;SDS011;38013;48.810;8.818;2022-11-15T14:25:51;7.97;;;3.22;;
50547;SDS011;38013;48.810;8.818;2022-11-15T14:30:48;6.95;;;2.60;;
50547;SDS011;38013;48.810;8.818;2022-11-15T14:35:48;4.40;;;2.15;;
50547;SDS011;38013;48.810;8.818;2022-11-15T14:38:15;5.90;;;2.30;;
50547;SDS011;38013;48.810;8.818;2022-11-15T14:40:41;6.10;;;2.95;;
50547;SDS011;38013;48.810;8.818;2022-11-15T14:43:09;6.65;;;3.15;;
50547;SDS011;38013;48.810;8.818;2022-11-15T14:45:36;8.43;;;3.35;;
50547;SDS011;38013;48.810;8.818;2022-11-15T14:48:03;5.85;;;2.80;;
50547;SDS011;38013;48.810;8.818;2022-11-15T14:50:29;6.30;;;3.17;;
50547;SDS011;38013;48.810;8.818;2022-11-15T14:52:55;6.60;;;2.70;;
50547;SDS011;38013;48.810;8.818;2022-11-15T14:55:21;7.70;;;3.03;;
50547;SDS011;38013;48.810;8.818;2022-11-15T14:58:04;6.22;;;2.70;;
50547;SDS011;38013;48.810;8.818;2022-11-15T15:00:33;5.88;;;2.72;;
50547;SDS011;38013;48.810;8.818;2022-11-15T15:03:04;4.18;;;2.10;;
50547;SDS011;38013;48.810;8.818;2022-11-15T15:05:35;5.95;;;2.10;;
50547;SDS011;38013;48.810;8.818;2022-11-15T15:08:09;6.18;;;2.55;;
50547;SDS011;38013;48.810;8.818;2022-11-15T15:10:39;6.68;;;2.60;;
50547;SDS011;38013;48.810;8.818;2022-11-15T15:13:21;7.05;;;2.75;;
50547;SDS011;38013;48.810;8.818;2022-11-15T15:15:49;5.65;;;2.60;;
50547;SDS011;38013;48.810;8.818;2022-11-15T15:18:16;6.05;;;2.50;;
50547;SDS011;38013;48.810;8.818;2022-11-15T15:20:43;7.75;;;3.00;;
50547;SDS011;38013;48.810;8.818;2022-11-15T15:23:17;6.15;;;2.80;;
50547;SDS011;38013;48.810;8.818;2022-11-15T15:25:45;5.95;;;2.72;;
50547;SDS011;38013;48.810;8.818;2022-11-15T15:28:13;4.63;;;2.22;;
50547;SDS011;38013;48.810;8.818;2022-11-15T15:30:40;7.18;;;2.88;;
50547;SDS011;38013;48.810;8.818;2022-11-15T15:33:06;7.70;;;3.25;;
50547;SDS011;38013;48.810;8.818;2022-11-15T15:35:33;8.20;;;3.17;;
50547;SDS011;38013;48.810;8.818;2022-11-15T15:38:00;8.65;;;4.00;;
50547;SDS011;38013;48.810;8.818;2022-11-15T15:40:27;7.43;;;3.33;;
50547;SDS011;38013;48.810;8.818;2022-11-15T15:42:56;6.55;;;3.35;;
50547;SDS011;38013;48.810;8.818;2022-11-15T15:45:21;8.95;;;3.53;;
50547;SDS011;38013;48.810;8.818;2022-11-15T15:47:47;11.20;;;4.47;;
50547;SDS011;38013;48.810;8.818;2022-11-15T15:52:48;7.90;;;2.92;;
50547;SDS011;38013;48.810;8.818;2022-11-15T15:55:16;7.47;;;3.33;;
50547;SDS011;38013;48.810;8.818;2022-11-15T15:57:42;5.82;;;2.75;;
50547;SDS011;38013;48.810;8.818;2022-11-15T16:00:08;4.85;;;2.50;;
50547;SDS011;38013;48.810;8.818;2022-11-15T16:02:38;4.38;;;2.15;;
50547;SDS011;38013;48.810;8.818;2022-11-15T16:05:05;8.40;;;2.50;;
50547;SDS011;38013;48.810;8.818;2022-11-15T16:07:32;6.13;;;2.80;;
50547;SDS011;38013;48.810;8.818;2022-11-15T16:09:57;8.02;;;3.97;;
50547;SDS011;38013;48.810;8.818;2022-11-15T16:12:27;8.10;;;3.45;;
50547;SDS011;38013;48.810;8.818;2022-11-15T16:14:58;32.03;;;10.55;;
50547;SDS011;38013;48.810;8.818;2022-11-15T16:17:26;27.40;;;10.82;;
50547;SDS011;38013;48.810;8.818;2022-11-15T16:19:56;17.08;;;8.13;;
50547;SDS011;38013;48.810;8.818;2022-11-15T16:22:22;8.70;;;3.90;;
50547;SDS011;38013;48.810;8.818;2022-11-15T16:24:48;6.47;;;2.90;;
50547;SDS011;38013;48.810;8.818;2022-11-15T16:27:14;8.02;;;3.10;;
50547;SDS011;38013;48.810;8.818;2022-11-15T16:29:42;6.18;;;3.47;;
50547;SDS011;38013;48.810;8.818;2022-11-15T16:32:08;10.70;;;4.28;;
50547;SDS011;38013;48.810;8.818;2022-11-15T16:34:34;6.65;;;3.85;;
50547;SDS011;38013;48.810;8.818;2022-11-15T16:37:00;8.98;;;5.30;;
50547;SDS011;38013;48.810;8.818;2022-11-15T16:39:26;18.48;;;9.48;;
50547;SDS011;38013;48.810;8.818;2022-11-15T16:41:55;18.33;;;8.13;;
50547;SDS011;38013;48.810;8.818;2022-11-15T16:44:22;16.42;;;7.75;;
50547;SDS011;38013;48.810;8.818;2022-11-15T16:46:49;29.92;;;15.88;;
50547;SDS011;38013;48.810;8.818;2022-11-15T16:49:18;33.47;;;20.75;;
50547;SDS011;38013;48.810;8.818;2022-11-15T16:51:45;13.15;;;9.32;;
50547;SDS011;38013;48.810;8.818;2022-11-15T16:54:13;10.95;;;5.90;;
50547;SDS011;38013;48.810;8.818;2022-11-15T16:56:40;7.82;;;4.10;;
50547;SDS011;38013;48.810;8.818;2022-11-15T16:59:06;9.20;;;4.03;;
50547;SDS011;38013;48.810;8.818;2022-11-15T17:01:36;9.70;;;4.55;;
50547;SDS011;38013;48.810;8.818;2022-11-15T17:04:11;8.93;;;4.65;;
50547;SDS011;38013;48.810;8.818;2022-11-15T17:06:38;6.78;;;4.10;;
50547;SDS011;38013;48.810;8.818;2022-11-15T17:09:05;10.23;;;3.78;;
50547;SDS011;38013;48.810;8.818;2022-11-15T17:11:35;7.40;;;3.85;;
50547;SDS011;38013;48.810;8.818;2022-11-15T17:14:00;7.43;;;4.00;;
50547;SDS011;38013;48.810;8.818;2022-11-15T17:16:26;11.77;;;5.47;;
50547;SDS011;38013;48.810;8.818;2022-11-15T17:18:52;10.55;;;5.65;;
50547;SDS011;38013;48.810;8.818;2022-11-15T17:21:19;11.45;;;5.32;;
50547;SDS011;38013;48.810;8.818;2022-11-15T17:23:46;7.03;;;4.22;;
50547;SDS011;38013;48.810;8.818;2022-11-15T17:26:13;11.15;;;5.20;;
50547;SDS011;38013;48.810;8.818;2022-11-15T17:28:40;10.00;;;5.95;;
50547;SDS011;38013;48.810;8.818;2022-11-15T17:31:09;14.75;;;7.57;;
50547;SDS011;38013;48.810;8.818;2022-11-15T17:33:37;10.75;;;6.18;;
50547;SDS011;38013;48.810;8.818;2022-11-15T17:36:06;12.95;;;6.45;;
50547;SDS011;38013;48.810;8.818;2022-11-15T17:38:35;7.95;;;4.43;;
50547;SDS011;38013;48.810;8.818;2022-11-15T17:43:31;6.30;;;3.72;;
50547;SDS011;38013;48.810;8.818;2022-11-15T17:46:01;8.05;;;4.35;;
50547;SDS011;38013;48.810;8.818;2022-11-15T17:48:31;10.13;;;5.13;;
50547;SDS011;38013;48.810;8.818;2022-11-15T17:50:58;9.82;;;4.90;;
50547;SDS011;38013;48.810;8.818;2022-11-15T17:53:26;9.60;;;4.53;;
50547;SDS011;38013;48.810;8.818;2022-11-15T17:55:59;8.15;;;4.28;;
50547;SDS011;38013;48.810;8.818;2022-11-15T17:58:29;9.15;;;4.35;;
50547;SDS011;38013;48.810;8.818;2022-11-15T18:01:03;10.52;;;4.45;;
50547;SDS011;38013;48.810;8.818;2022-11-15T18:03:36;7.18;;;3.78;;
50547;SDS011;38013;48.810;8.818;2022-11-15T18:06:03;7.60;;;3.33;;
50547;SDS011;38013;48.810;8.818;2022-11-15T18:08:30;7.68;;;3.83;;
50547;SDS011;38013;48.810;8.818;2022-11-15T18:11:01;7.13;;;4.13;;
50547;SDS011;38013;48.810;8.818;2022-11-15T18:13:32;7.57;;;3.67;;
50547;SDS011;38013;48.810;8.818;2022-11-15T18:16:03;6.18;;;2.80;;
50547;SDS011;38013;48.810;8.818;2022-11-15T18:18:30;5.78;;;2.97;;
50547;SDS011;38013;48.810;8.818;2022-11-15T18:21:12;5.93;;;3.33;;
50547;SDS011;38013;48.810;8.818;2022-11-15T18:23:43;6.28;;;3.33;;